Terminal Aerodrome Forecast
Issued by NWS Sioux Falls, SD

Home | Current Version | Previous Version | Graphics & Text | Print | Product List | Glossary On
Versions: 1 2 3 4 5 6 7 8 9 10 11 12 13 14 15
000
FTUS43 KFSD 161100
TAFHON
TAF
KHON 161136Z 1612/1712 05017G24KT P6SM -SHRA SCT040 OVC070
     FM161500 02017G24KT 3SM -SN OVC015
      TEMPO 1615/1616 6SM -RASN
     FM161900 36021G30KT P6SM OVC025
     FM170130 35014KT P6SM OVC025
     FM170500 33008KT P6SM SCT025 BKN150=

USA.gov is the U.S. government's official web portal to all federal, state and local government web resources and services.